createdAt,value
2023-08-29T00:01:33.943Z,1.02
2023-08-29T00:04:01.882Z,0.88
2023-08-29T00:06:29.787Z,0.98
2023-08-29T00:08:59.057Z,1.02
2023-08-29T00:11:27.174Z,1.13
2023-08-29T00:13:55.182Z,0.82
2023-08-29T00:16:23.692Z,0.93
2023-08-29T00:18:51.603Z,0.70
2023-08-29T00:21:19.511Z,0.90
2023-08-29T00:23:48.618Z,1.08
2023-08-29T00:26:18.027Z,1.10
2023-08-29T00:28:47.931Z,0.90
2023-08-29T00:31:15.930Z,0.77
2023-08-29T00:33:44.427Z,1.00
2023-08-29T00:36:12.527Z,0.75
2023-08-29T00:38:40.570Z,0.82
2023-08-29T00:41:08.609Z,0.82
2023-08-29T00:43:38.613Z,0.70
2023-08-29T00:46:07.827Z,1.15
2023-08-29T00:48:36.041Z,0.90
2023-08-29T00:51:04.022Z,0.73
2023-08-29T00:53:36.345Z,0.60
2023-08-29T00:56:06.042Z,0.90
2023-08-29T00:58:35.037Z,0.80
2023-08-29T01:01:04.602Z,1.10
2023-08-29T01:03:33.042Z,0.88
2023-08-29T01:06:01.022Z,0.90
2023-08-29T01:08:29.102Z,0.80
2023-08-29T01:11:02.329Z,0.90
2023-08-29T01:13:41.761Z,0.88
2023-08-29T01:16:12.619Z,0.88
2023-08-29T01:18:40.963Z,0.90
2023-08-29T01:21:20.885Z,0.88
2023-08-29T01:23:56.104Z,0.93
2023-08-29T01:26:25.793Z,0.98
2023-08-29T01:28:53.927Z,1.10
2023-08-29T01:31:22.937Z,0.80
2023-08-29T01:33:51.367Z,0.95
2023-08-29T01:36:19.274Z,0.90
2023-08-29T01:38:47.158Z,0.90
2023-08-29T01:41:15.046Z,0.88
2023-08-29T01:43:44.301Z,0.90
2023-08-29T01:46:12.964Z,1.08
2023-08-29T01:48:42.013Z,1.13
2023-08-29T01:51:09.969Z,0.88
2023-08-29T01:53:39.968Z,1.00
2023-08-29T01:56:09.852Z,0.80
2023-08-29T01:58:39.522Z,1.27
2023-08-29T02:01:22.598Z,0.95
2023-08-29T02:03:52.094Z,0.90
2023-08-29T02:06:21.758Z,0.82
2023-08-29T02:08:49.817Z,0.80
2023-08-29T02:11:17.861Z,0.80
2023-08-29T02:13:45.751Z,0.80
2023-08-29T02:16:15.112Z,0.90
2023-08-29T02:18:43.282Z,1.00
2023-08-29T02:21:13.880Z,0.90
2023-08-29T02:23:41.848Z,0.90
2023-08-29T02:26:09.805Z,0.90
2023-08-29T02:28:39.487Z,1.20
2023-08-29T02:31:08.928Z,0.90
2023-08-29T02:33:40.107Z,0.60
2023-08-29T02:36:08.491Z,0.90
2023-08-29T02:38:36.864Z,0.90
2023-08-29T02:41:04.807Z,0.90
2023-08-29T02:43:33.991Z,0.80
2023-08-29T02:46:01.994Z,0.70
2023-08-29T02:48:29.956Z,0.93
2023-08-29T02:50:59.222Z,1.20
2023-08-29T02:53:27.289Z,1.10
2023-08-29T02:55:55.456Z,1.23
2023-08-29T02:58:23.367Z,0.82
2023-08-29T03:00:57.099Z,0.75
2023-08-29T03:03:25.420Z,0.93
2023-08-29T03:05:56.807Z,0.70
2023-08-29T03:08:26.342Z,0.80
2023-08-29T03:10:55.077Z,1.08
2023-08-29T03:13:23.883Z,0.80
2023-08-29T03:15:51.895Z,0.70
2023-08-29T03:18:19.824Z,1.08
2023-08-29T03:20:48.055Z,0.70
2023-08-29T03:23:16.016Z,0.90
2023-08-29T03:25:45.287Z,1.00
2023-08-29T03:28:13.177Z,0.90
2023-08-29T03:30:41.175Z,1.00
2023-08-29T03:33:09.361Z,0.82
2023-08-29T03:35:38.370Z,0.90
2023-08-29T03:38:07.794Z,0.63
2023-08-29T03:40:36.522Z,0.70
2023-08-29T03:43:06.121Z,0.90
2023-08-29T03:45:34.014Z,0.98
2023-08-29T03:48:05.553Z,1.10
2023-08-29T03:50:35.768Z,0.90
2023-08-29T03:53:03.824Z,1.00
2023-08-29T03:55:32.298Z,1.17
2023-08-29T03:58:00.184Z,0.88
2023-08-29T04:00:29.761Z,0.85
2023-08-29T04:02:57.762Z,0.98
2023-08-29T04:05:26.031Z,1.10
2023-08-29T04:07:54.021Z,0.95
2023-08-29T04:10:22.058Z,0.85
2023-08-29T04:12:49.951Z,0.88
2023-08-29T04:15:18.901Z,0.90
2023-08-29T04:17:48.199Z,1.00
2023-08-29T04:20:17.393Z,0.90
2023-08-29T04:22:47.453Z,0.90
2023-08-29T04:25:15.387Z,0.90
2023-08-29T04:27:43.563Z,0.95
2023-08-29T04:30:12.247Z,1.15
2023-08-29T04:32:40.346Z,0.88
2023-08-29T04:35:11.609Z,0.80
2023-08-29T04:37:39.664Z,1.13
2023-08-29T04:40:09.031Z,0.80
2023-08-29T04:42:38.325Z,0.90
2023-08-29T04:45:07.251Z,0.90
2023-08-29T04:47:35.589Z,1.00
2023-08-29T04:50:04.273Z,0.70
2023-08-29T04:52:34.117Z,1.02
2023-08-29T04:55:02.313Z,1.30
2023-08-29T04:57:30.746Z,0.82
2023-08-29T04:59:58.658Z,1.00
2023-08-29T05:02:26.703Z,1.00
2023-08-29T05:04:54.622Z,1.17
2023-08-29T05:07:22.654Z,0.95
2023-08-29T05:09:52.452Z,1.20
2023-08-29T05:12:20.451Z,1.13
2023-08-29T05:14:48.680Z,1.30
2023-08-29T05:17:17.893Z,0.90
2023-08-29T05:19:45.778Z,1.00
2023-08-29T05:22:13.773Z,1.08
2023-08-29T05:24:43.165Z,0.90
2023-08-29T05:27:12.437Z,0.80
2023-08-29T05:29:40.613Z,1.10
2023-08-29T05:32:08.509Z,0.93
2023-08-29T05:34:36.516Z,1.00
2023-08-29T05:37:05.129Z,0.98
2023-08-29T05:39:32.875Z,1.55
2023-08-29T05:42:00.754Z,1.10
2023-08-29T05:44:30.034Z,1.40
2023-08-29T05:46:57.972Z,1.00
2023-08-29T05:49:25.927Z,1.33
2023-08-29T05:51:53.779Z,1.45
2023-08-29T05:54:22.137Z,0.95
2023-08-29T05:56:50.196Z,1.33
2023-08-29T05:59:18.138Z,1.15
2023-08-29T06:01:47.440Z,1.10
2023-08-29T06:04:15.405Z,1.33
2023-08-29T06:06:44.757Z,1.30
2023-08-29T06:09:12.649Z,1.15
2023-08-29T06:11:40.817Z,1.02
2023-08-29T06:14:08.718Z,1.30
2023-08-29T06:16:36.674Z,1.15
2023-08-29T06:19:05.970Z,1.13
2023-08-29T06:21:33.898Z,1.27
2023-08-29T06:24:01.947Z,0.85
2023-08-29T06:26:31.143Z,0.65
2023-08-29T06:28:59.011Z,0.98
2023-08-29T06:31:26.987Z,0.93
2023-08-29T06:33:54.863Z,0.85
2023-08-29T06:36:25.815Z,1.10
2023-08-29T06:38:54.592Z,0.90
2023-08-29T06:41:22.512Z,1.10
2023-08-29T06:43:50.500Z,0.90
2023-08-29T06:46:18.606Z,1.15
2023-08-29T06:48:46.615Z,0.70
2023-08-29T06:51:14.602Z,1.17
2023-08-29T06:53:43.883Z,1.00
2023-08-29T06:56:11.768Z,0.68
2023-08-29T06:58:39.683Z,0.82
2023-08-29T07:01:07.608Z,0.90
2023-08-29T07:03:35.722Z,0.90
2023-08-29T07:06:03.838Z,1.00
2023-08-29T07:08:31.786Z,1.00
2023-08-29T07:11:01.017Z,0.90
2023-08-29T07:13:28.949Z,0.80
2023-08-29T07:15:56.816Z,0.80
2023-08-29T07:18:25.675Z,0.88
2023-08-29T07:20:53.695Z,0.90
2023-08-29T07:23:21.613Z,0.80
2023-08-29T07:25:49.482Z,1.00
2023-08-29T07:28:18.846Z,0.80
2023-08-29T07:30:48.579Z,0.95
2023-08-29T07:33:16.747Z,1.02
2023-08-29T07:35:45.152Z,0.98
2023-08-29T07:38:13.557Z,0.85
2023-08-29T07:40:41.762Z,0.73
2023-08-29T07:43:11.021Z,0.82
2023-08-29T07:45:40.248Z,1.02
2023-08-29T07:48:09.118Z,0.85
2023-08-29T07:50:37.463Z,0.75
2023-08-29T07:53:05.658Z,1.40
2023-08-29T07:55:33.727Z,0.82
2023-08-29T07:58:02.933Z,0.70
2023-08-29T08:00:31.519Z,1.10
2023-08-29T08:03:01.430Z,0.80
2023-08-29T08:05:29.585Z,1.13
2023-08-29T08:07:57.920Z,0.80
2023-08-29T08:10:25.807Z,0.82
2023-08-29T08:12:53.762Z,0.90
2023-08-29T08:15:21.798Z,0.80
2023-08-29T08:17:50.926Z,0.95
2023-08-29T08:20:20.365Z,0.68
2023-08-29T08:22:48.256Z,0.80
2023-08-29T08:25:16.140Z,0.68
2023-08-29T08:27:44.140Z,0.85
2023-08-29T08:30:13.123Z,0.52
2023-08-29T08:32:41.007Z,0.90
2023-08-29T08:35:10.321Z,0.90
2023-08-29T08:37:39.768Z,0.98
2023-08-29T08:40:11.025Z,0.90
2023-08-29T08:42:41.175Z,1.83
2023-08-29T08:45:10.339Z,0.68
2023-08-29T08:47:38.824Z,0.68
2023-08-29T08:50:09.752Z,1.00
2023-08-29T08:52:40.603Z,0.90
2023-08-29T08:55:09.396Z,0.90
2023-08-29T08:57:38.698Z,1.08
2023-08-29T09:00:08.433Z,0.90
2023-08-29T09:02:37.774Z,1.13
2023-08-29T09:05:08.300Z,0.95
2023-08-29T09:07:41.023Z,0.98
2023-08-29T09:10:11.823Z,0.77
2023-08-29T09:12:48.543Z,0.93
2023-08-29T09:15:18.008Z,0.88
2023-08-29T09:17:47.532Z,0.52
2023-08-29T09:20:16.101Z,1.15
2023-08-29T09:22:46.341Z,0.88
2023-08-29T09:25:14.564Z,1.02
2023-08-29T09:27:43.461Z,1.00
2023-08-29T09:30:13.255Z,0.90
2023-08-29T09:32:43.758Z,1.08
2023-08-29T09:35:14.396Z,0.80
2023-08-29T09:37:46.245Z,1.30
2023-08-29T09:40:37.099Z,1.08
2023-08-29T09:43:06.635Z,0.90
2023-08-29T09:45:36.165Z,1.13
2023-08-29T09:48:04.941Z,0.80
2023-08-29T09:50:33.657Z,1.13
2023-08-29T09:53:02.592Z,0.93
2023-08-29T09:55:35.696Z,0.90
2023-08-29T09:58:06.473Z,1.00
2023-08-29T10:00:37.196Z,1.38
2023-08-29T10:03:08.816Z,1.00
2023-08-29T10:05:38.582Z,0.90
2023-08-29T10:08:13.982Z,0.85
2023-08-29T10:10:44.376Z,0.95
2023-08-29T10:13:13.034Z,0.93
2023-08-29T10:15:43.300Z,0.82
2023-08-29T10:18:12.568Z,1.02
2023-08-29T10:20:44.642Z,0.90
2023-08-29T10:23:14.807Z,1.10
2023-08-29T10:25:45.962Z,1.23
2023-08-29T10:28:16.322Z,0.70
2023-08-29T10:30:48.368Z,0.90
2023-08-29T10:33:16.567Z,1.13
2023-08-29T10:35:44.675Z,0.80
2023-08-29T10:38:16.360Z,0.90
2023-08-29T10:40:47.219Z,1.00
2023-08-29T10:43:19.874Z,1.08
2023-08-29T10:45:52.191Z,1.10
2023-08-29T10:48:21.930Z,0.80
2023-08-29T10:51:10.489Z,0.90
2023-08-29T10:53:39.618Z,1.00
2023-08-29T10:56:10.140Z,0.70
2023-08-29T10:58:40.795Z,0.80
2023-08-29T11:01:10.039Z,1.02
2023-08-29T11:03:49.711Z,0.75
2023-08-29T11:06:19.007Z,1.15
2023-08-29T11:08:47.279Z,1.02
2023-08-29T11:11:21.335Z,1.00
2023-08-29T11:13:59.711Z,0.90
2023-08-29T11:16:28.246Z,0.88
2023-08-29T11:19:06.983Z,0.90
2023-08-29T11:21:35.511Z,0.98
2023-08-29T11:26:41.129Z,0.57
2023-08-29T11:29:09.659Z,1.00
2023-08-29T11:31:41.421Z,1.10
2023-08-29T11:34:14.798Z,1.10
2023-08-29T11:36:43.925Z,0.90
2023-08-29T11:39:11.849Z,0.90
2023-08-29T11:41:55.276Z,1.25
2023-08-29T11:45:39.289Z,0.88
2023-08-29T11:47:18.851Z,1.00
2023-08-29T11:49:50.301Z,0.70
2023-08-29T11:52:19.067Z,0.80
2023-08-29T11:54:51.567Z,0.90
2023-08-29T11:57:21.077Z,0.93
2023-08-29T11:59:50.039Z,1.20
2023-08-29T12:02:20.186Z,0.80
2023-08-29T12:04:49.636Z,1.20
2023-08-29T12:07:19.289Z,1.00
2023-08-29T12:09:48.334Z,1.10
2023-08-29T12:12:34.761Z,1.30
2023-08-29T12:15:03.376Z,0.95
2023-08-29T12:17:39.509Z,1.17
2023-08-29T12:20:30.856Z,0.90
2023-08-29T12:22:59.002Z,1.10
2023-08-29T12:25:28.049Z,0.80
2023-08-29T12:27:58.243Z,1.10
2023-08-29T12:30:26.327Z,0.80
2023-08-29T12:32:54.464Z,0.90
2023-08-29T12:35:23.034Z,0.82
2023-08-29T12:37:51.023Z,0.80
2023-08-29T12:40:19.184Z,1.05
2023-08-29T12:42:48.552Z,1.02
2023-08-29T12:45:17.916Z,0.80
2023-08-29T12:47:47.524Z,0.85
2023-08-29T12:50:16.057Z,0.90
2023-08-29T12:52:44.068Z,0.90
2023-08-29T12:55:13.272Z,1.10
2023-08-29T12:57:41.265Z,0.90
2023-08-29T13:00:10.957Z,0.90
2023-08-29T13:02:40.387Z,0.80
2023-08-29T13:05:08.845Z,1.00
2023-08-29T13:07:36.905Z,0.90
2023-08-29T13:10:06.353Z,1.10
2023-08-29T13:12:34.282Z,0.90
2023-08-29T13:15:02.228Z,0.77
2023-08-29T13:17:30.821Z,1.70
2023-08-29T13:20:00.209Z,0.85
2023-08-29T13:22:28.566Z,1.00
2023-08-29T13:24:56.459Z,0.95
2023-08-29T13:27:24.329Z,1.00
2023-08-29T13:29:52.299Z,0.88
2023-08-29T13:32:20.560Z,0.90
2023-08-29T13:34:48.507Z,1.35
2023-08-29T13:37:17.774Z,0.65
2023-08-29T13:39:46.089Z,0.80
2023-08-29T13:42:14.013Z,0.93
2023-08-29T13:44:43.742Z,0.90
2023-08-29T13:47:11.628Z,0.80
2023-08-29T13:49:39.690Z,0.80
2023-08-29T13:52:09.441Z,0.90
2023-08-29T13:54:38.857Z,1.10
2023-08-29T13:57:07.278Z,1.08
2023-08-29T13:59:35.252Z,1.00
2023-08-29T14:02:03.655Z,1.00
2023-08-29T14:04:31.584Z,0.90
2023-08-29T14:06:59.486Z,1.20
2023-08-29T14:09:27.408Z,0.98
2023-08-29T14:11:56.644Z,0.98
2023-08-29T14:14:25.233Z,0.90
2023-08-29T14:16:54.068Z,0.90
2023-08-29T14:19:21.657Z,0.60
2023-08-29T14:21:50.013Z,0.90
2023-08-29T14:24:18.062Z,0.90
2023-08-29T14:26:46.711Z,1.30
2023-08-29T14:29:16.030Z,1.25
2023-08-29T14:31:43.988Z,0.90
2023-08-29T14:34:11.963Z,1.00
2023-08-29T14:36:39.922Z,1.00
2023-08-29T14:39:08.496Z,0.88
2023-08-29T14:41:36.453Z,0.95
2023-08-29T14:44:04.501Z,1.40
2023-08-29T14:46:33.846Z,0.80
2023-08-29T14:49:01.758Z,1.10
2023-08-29T14:51:29.660Z,1.20
2023-08-29T14:53:57.925Z,0.82
2023-08-29T14:56:26.885Z,1.13
2023-08-29T14:58:54.855Z,0.88
2023-08-29T15:01:23.272Z,1.20
2023-08-29T15:03:52.710Z,0.98
2023-08-29T15:06:20.912Z,1.10
2023-08-29T15:08:49.482Z,1.00
2023-08-29T15:11:17.685Z,1.40
2023-08-29T15:13:45.557Z,0.90
2023-08-29T15:16:13.730Z,1.10
2023-08-29T15:18:42.726Z,0.93
2023-08-29T15:21:12.023Z,1.20
2023-08-29T15:23:39.973Z,1.13
2023-08-29T15:26:08.302Z,1.35
2023-08-29T15:28:36.166Z,1.02
2023-08-29T15:31:04.468Z,1.20
2023-08-29T15:33:33.172Z,1.27
2023-08-29T15:36:01.113Z,0.98
2023-08-29T15:38:30.673Z,1.10
2023-08-29T15:40:59.084Z,1.30
2023-08-29T15:43:27.073Z,1.13
2023-08-29T15:45:56.200Z,0.95
2023-08-29T15:48:24.289Z,1.10
2023-08-29T15:50:56.307Z,1.00
2023-08-29T15:53:24.266Z,1.27
2023-08-29T15:56:01.803Z,0.90
2023-08-29T15:58:29.806Z,1.00
2023-08-29T16:00:57.681Z,1.00
2023-08-29T16:03:25.809Z,1.33
2023-08-29T16:05:53.871Z,1.40
2023-08-29T16:08:21.807Z,1.15
2023-08-29T16:10:49.885Z,1.23
2023-08-29T16:13:19.351Z,1.05
2023-08-29T16:15:47.342Z,1.52
2023-08-29T16:18:15.371Z,1.05
2023-08-29T16:20:43.981Z,1.08
2023-08-29T16:23:12.018Z,1.40
2023-08-29T16:25:40.838Z,1.10
2023-08-29T16:28:09.058Z,1.20
2023-08-29T16:30:38.597Z,1.35
2023-08-29T16:33:08.100Z,1.23
2023-08-29T16:35:36.620Z,1.20
2023-08-29T16:38:06.032Z,1.30
2023-08-29T16:40:35.101Z,1.10
2023-08-29T16:43:03.052Z,0.95
2023-08-29T16:45:31.003Z,1.60
2023-08-29T16:48:00.836Z,1.20
2023-08-29T16:50:28.998Z,1.80
2023-08-29T16:52:57.377Z,1.40
2023-08-29T16:55:25.276Z,1.23
2023-08-29T16:57:53.645Z,1.40
2023-08-29T17:00:21.618Z,1.42
2023-08-29T17:02:49.674Z,1.23
2023-08-29T17:05:19.054Z,1.67
2023-08-29T17:07:46.915Z,1.33
2023-08-29T17:10:15.958Z,1.20
2023-08-29T17:12:43.867Z,1.20
2023-08-29T17:15:13.965Z,1.10
2023-08-29T17:17:41.901Z,1.52
2023-08-29T17:20:10.833Z,1.27
2023-08-29T17:22:40.161Z,1.63
2023-08-29T17:25:08.825Z,1.42
2023-08-29T17:27:36.779Z,1.13
2023-08-29T17:30:06.522Z,1.10
2023-08-29T17:32:34.587Z,0.98
2023-08-29T17:35:02.893Z,1.42
2023-08-29T17:37:30.815Z,1.30
2023-08-29T17:40:01.692Z,1.30
2023-08-29T17:42:29.633Z,1.23
2023-08-29T17:44:57.824Z,1.27
2023-08-29T17:47:26.132Z,1.45
2023-08-29T17:49:54.079Z,1.08
2023-08-29T17:52:22.009Z,1.33
2023-08-29T17:54:49.951Z,1.20
2023-08-29T17:57:19.226Z,1.30
2023-08-29T17:59:49.901Z,1.10
2023-08-29T18:02:17.824Z,1.27
2023-08-29T18:04:45.710Z,1.25
2023-08-29T18:07:15.208Z,1.40
2023-08-29T18:10:08.880Z,1.23
2023-08-29T18:12:39.612Z,1.00
2023-08-29T18:15:09.489Z,1.20
2023-08-29T18:17:37.570Z,1.90
2023-08-29T18:20:07.043Z,1.40
2023-08-29T18:22:35.480Z,1.20
2023-08-29T18:25:03.809Z,1.65
2023-08-29T18:27:31.776Z,1.90
2023-08-29T18:30:01.152Z,2.38
2023-08-29T18:32:32.646Z,2.08
2023-08-29T18:35:00.709Z,2.58
2023-08-29T18:37:28.830Z,2.42
2023-08-29T18:39:57.466Z,2.10
2023-08-29T18:42:25.447Z,2.00
2023-08-29T18:44:53.385Z,1.58
2023-08-29T18:47:22.651Z,1.63
2023-08-29T18:49:50.597Z,1.73
2023-08-29T18:52:18.476Z,1.20
2023-08-29T18:54:46.452Z,1.50
2023-08-29T18:57:14.347Z,1.60
2023-08-29T18:59:42.295Z,1.20
2023-08-29T19:02:10.200Z,1.40
2023-08-29T19:04:39.767Z,1.50
2023-08-29T19:07:07.660Z,1.33
2023-08-29T19:09:35.592Z,1.27
2023-08-29T19:12:03.593Z,1.33
2023-08-29T19:14:31.611Z,1.67
2023-08-29T19:16:59.520Z,1.45
2023-08-29T19:19:27.429Z,1.00
2023-08-29T19:21:56.780Z,1.42
2023-08-29T19:24:24.732Z,1.70
2023-08-29T19:26:52.844Z,1.27
2023-08-29T19:29:21.075Z,1.45
2023-08-29T19:31:49.007Z,1.42
2023-08-29T19:34:16.936Z,1.58
2023-08-29T19:36:44.878Z,1.38
2023-08-29T19:39:17.575Z,1.40
2023-08-29T19:41:45.885Z,1.63
2023-08-29T19:44:17.125Z,1.48
2023-08-29T19:46:45.659Z,1.45
2023-08-29T19:49:14.156Z,1.38
2023-08-29T19:51:42.588Z,1.05
2023-08-29T19:54:10.836Z,1.27
2023-08-29T19:56:40.250Z,1.20
2023-08-29T19:59:08.502Z,1.40
2023-08-29T20:01:36.441Z,1.08
2023-08-29T20:04:04.857Z,1.20
2023-08-29T20:06:32.862Z,1.33
2023-08-29T20:09:00.811Z,1.52
2023-08-29T20:11:28.862Z,1.20
2023-08-29T20:13:58.224Z,1.48
2023-08-29T20:16:26.423Z,1.30
2023-08-29T20:18:55.548Z,1.50
2023-08-29T20:21:23.522Z,0.98
2023-08-29T20:24:01.065Z,1.17
2023-08-29T20:26:30.676Z,0.90
2023-08-29T20:29:01.227Z,1.30
2023-08-29T20:31:29.467Z,1.52
2023-08-29T20:33:57.422Z,0.98
2023-08-29T20:36:25.386Z,1.52
2023-08-29T20:38:53.281Z,1.23
2023-08-29T20:41:21.353Z,1.25
2023-08-29T20:43:49.341Z,1.58
2023-08-29T20:46:18.923Z,1.13
2023-08-29T20:48:51.857Z,1.65
2023-08-29T20:51:20.457Z,2.20
2023-08-29T20:53:48.550Z,2.47
2023-08-29T20:56:16.527Z,2.90
2023-08-29T20:58:44.478Z,2.45
2023-08-29T21:01:12.470Z,1.63
2023-08-29T21:03:41.900Z,2.05
2023-08-29T21:06:09.918Z,1.77
2023-08-29T21:08:37.902Z,1.77
2023-08-29T21:11:06.173Z,1.70
2023-08-29T21:13:34.090Z,1.45
2023-08-29T21:16:02.026Z,1.70
2023-08-29T21:18:29.968Z,1.10
2023-08-29T21:21:01.205Z,1.10
2023-08-29T21:23:29.964Z,1.38
2023-08-29T21:25:57.960Z,1.40
2023-08-29T21:28:27.342Z,1.77
2023-08-29T21:30:56.218Z,1.30
2023-08-29T21:33:24.851Z,1.20
2023-08-29T21:35:53.240Z,1.55
2023-08-29T21:38:23.178Z,1.13
2023-08-29T21:40:51.162Z,1.15
2023-08-29T21:43:22.024Z,1.48
2023-08-29T21:45:54.822Z,1.30
2023-08-29T21:48:25.425Z,1.40
2023-08-29T21:50:54.594Z,1.00
2023-08-29T21:53:24.390Z,1.00
2023-08-29T21:55:53.330Z,1.10
2023-08-29T21:58:21.498Z,1.00
2023-08-29T22:00:52.861Z,1.10
2023-08-29T22:03:23.605Z,1.17
2023-08-29T22:05:51.884Z,1.27
2023-08-29T22:08:20.322Z,1.20
2023-08-29T22:10:51.343Z,0.95
2023-08-29T22:13:19.571Z,0.90
2023-08-29T22:15:47.601Z,1.75
2023-08-29T22:18:15.586Z,1.00
2023-08-29T22:20:43.531Z,1.20
2023-08-29T22:23:11.606Z,1.20
2023-08-29T22:25:39.542Z,1.38
2023-08-29T22:28:09.087Z,1.02
2023-08-29T22:30:39.582Z,1.05
2023-08-29T22:33:09.300Z,1.25
2023-08-29T22:35:37.310Z,1.13
2023-08-29T22:38:05.460Z,1.23
2023-08-29T22:40:33.693Z,1.30
2023-08-29T22:43:01.657Z,1.10
2023-08-29T22:45:30.972Z,1.20
2023-08-29T22:47:59.129Z,1.60
2023-08-29T22:50:27.040Z,1.52
2023-08-29T22:52:55.102Z,1.00
2023-08-29T22:55:25.980Z,1.20
2023-08-29T22:57:55.142Z,1.20
2023-08-29T23:00:23.017Z,1.27
2023-08-29T23:02:52.518Z,1.58
2023-08-29T23:05:20.763Z,1.20
2023-08-29T23:07:48.655Z,1.52
2023-08-29T23:10:18.617Z,1.17
2023-08-29T23:12:46.578Z,1.20
2023-08-29T23:15:16.193Z,1.63
2023-08-29T23:17:44.304Z,1.20
2023-08-29T23:20:14.097Z,1.30
2023-08-29T23:22:42.074Z,1.20
2023-08-29T23:25:12.032Z,1.17
2023-08-29T23:27:40.012Z,1.02
2023-08-29T23:30:11.528Z,1.10
2023-08-29T23:32:40.574Z,0.93
2023-08-29T23:35:09.497Z,1.10
2023-08-29T23:37:40.434Z,1.20
2023-08-29T23:40:11.233Z,1.10
2023-08-29T23:42:39.139Z,1.10
2023-08-29T23:45:09.658Z,1.20
2023-08-29T23:47:37.968Z,0.98
2023-08-29T23:50:06.620Z,1.45
2023-08-29T23:52:34.505Z,0.90
2023-08-29T23:55:03.811Z,1.33
2023-08-29T23:57:31.745Z,1.10
2023-08-29T23:59:59.807Z,1.42
